createdAt,value
2023-04-14T00:00:10.968Z,12.20
2023-04-14T00:02:38.031Z,12.20
2023-04-14T00:05:07.535Z,12.20
2023-04-14T00:07:34.543Z,12.20
2023-04-14T00:10:01.410Z,12.10
2023-04-14T00:12:28.249Z,12.10
2023-04-14T00:14:55.106Z,12.10
2023-04-14T00:17:22.001Z,12.10
2023-04-14T00:19:48.959Z,12.10
2023-04-14T00:22:17.202Z,12.10
2023-04-14T00:24:44.121Z,12.10
2023-04-14T00:27:11.015Z,12.10
2023-04-14T00:29:37.879Z,12.10
2023-04-14T00:32:04.809Z,12.10
2023-04-14T00:34:31.684Z,12.10
2023-04-14T00:36:58.655Z,12.10
2023-04-14T00:39:26.963Z,12.10
2023-04-14T00:41:53.813Z,12.10
2023-04-14T00:44:20.703Z,12.10
2023-04-14T00:46:47.673Z,12.10
2023-04-14T00:49:15.135Z,12.10
2023-04-14T00:51:42.016Z,12.10
2023-04-14T00:54:08.887Z,12.10
2023-04-14T00:56:37.106Z,12.00
2023-04-14T00:59:03.970Z,12.00
2023-04-14T01:01:30.879Z,12.00
2023-04-14T01:03:57.934Z,12.00
2023-04-14T01:06:24.874Z,12.00
2023-04-14T01:08:51.737Z,12.00
2023-04-14T01:11:23.372Z,12.00
2023-04-14T01:13:54.113Z,12.00
2023-04-14T01:16:23.211Z,12.00
2023-04-14T01:18:53.534Z,12.00
2023-04-14T01:21:27.920Z,12.00
2023-04-14T01:24:22.893Z,12.00
2023-04-14T01:26:50.111Z,12.00
2023-04-14T01:29:48.208Z,11.90
2023-04-14T01:32:18.716Z,12.00
2023-04-14T01:34:48.342Z,11.90
2023-04-14T01:37:15.879Z,11.90
2023-04-14T01:39:45.543Z,11.90
2023-04-14T01:42:15.050Z,11.90
2023-04-14T01:44:42.008Z,11.90
2023-04-14T01:47:09.564Z,11.90
2023-04-14T01:49:39.417Z,11.90
2023-04-14T01:52:08.355Z,11.90
2023-04-14T01:54:35.726Z,11.90
2023-04-14T01:57:02.997Z,11.90
2023-04-14T01:59:30.557Z,11.90
2023-04-14T02:01:57.446Z,11.90
2023-04-14T02:04:25.520Z,11.80
2023-04-14T02:06:53.782Z,11.80
2023-04-14T02:09:20.796Z,11.90
2023-04-14T02:11:48.202Z,11.80
2023-04-14T02:14:15.076Z,11.80
2023-04-14T02:16:41.948Z,11.80
2023-04-14T02:19:08.841Z,11.80
2023-04-14T02:21:35.660Z,11.80
2023-04-14T02:24:04.173Z,11.80
2023-04-14T02:26:31.711Z,11.80
2023-04-14T02:29:02.376Z,11.80
2023-04-14T02:31:30.466Z,11.80
2023-04-14T02:33:57.495Z,11.80
2023-04-14T02:36:27.489Z,11.80
2023-04-14T02:38:55.832Z,11.80
2023-04-14T02:41:25.587Z,11.80
2023-04-14T02:43:55.862Z,11.80
2023-04-14T02:46:23.248Z,11.70
2023-04-14T02:48:50.158Z,11.70
2023-04-14T02:51:17.030Z,11.70
2023-04-14T02:53:43.871Z,11.70
2023-04-14T02:56:10.735Z,11.70
2023-04-14T02:58:38.995Z,11.80
2023-04-14T03:01:05.906Z,11.70
2023-04-14T03:03:32.819Z,11.70
2023-04-14T03:05:59.694Z,11.70
2023-04-14T03:08:26.541Z,11.70
2023-04-14T03:10:53.399Z,11.70
2023-04-14T03:13:20.268Z,11.70
2023-04-14T03:15:48.558Z,11.70
2023-04-14T03:18:15.436Z,11.70
2023-04-14T03:20:42.309Z,11.60
2023-04-14T03:23:09.172Z,11.70
2023-04-14T03:25:36.457Z,11.60
2023-04-14T03:28:04.126Z,11.70
2023-04-14T03:30:31.480Z,11.70
2023-04-14T03:33:02.507Z,11.70
2023-04-14T03:35:29.374Z,11.60
2023-04-14T03:37:56.287Z,11.60
2023-04-14T03:40:23.251Z,11.70
2023-04-14T03:42:50.171Z,11.60
2023-04-14T03:45:17.112Z,11.60
2023-04-14T03:47:44.078Z,11.60
2023-04-14T03:50:12.449Z,11.60
2023-04-14T03:52:39.353Z,11.60
2023-04-14T03:55:06.926Z,11.60
2023-04-14T03:57:33.855Z,11.60
2023-04-14T04:00:00.860Z,11.60
2023-04-14T04:02:27.855Z,11.60
2023-04-14T04:04:55.168Z,11.60
2023-04-14T04:07:23.551Z,11.60
2023-04-14T04:09:50.418Z,11.60
2023-04-14T04:12:18.662Z,11.60
2023-04-14T04:14:45.672Z,11.60
2023-04-14T04:17:13.848Z,11.60
2023-04-14T04:19:40.704Z,11.60
2023-04-14T04:22:07.561Z,11.60
2023-04-14T04:24:37.467Z,11.60
2023-04-14T04:27:07.838Z,11.50
2023-04-14T04:29:34.966Z,11.50
2023-04-14T04:32:01.883Z,11.50
2023-04-14T04:34:28.876Z,11.50
2023-04-14T04:36:56.144Z,11.50
2023-04-14T04:39:23.023Z,11.50
2023-04-14T04:41:51.235Z,11.50
2023-04-14T04:44:18.144Z,11.50
2023-04-14T04:46:48.977Z,11.50
2023-04-14T04:49:15.855Z,11.50
2023-04-14T04:51:43.374Z,11.50
2023-04-14T04:54:10.238Z,11.50
2023-04-14T04:56:37.097Z,11.50
2023-04-14T04:59:05.319Z,11.50
2023-04-14T05:01:32.251Z,11.50
2023-04-14T05:03:59.145Z,11.50
2023-04-14T05:06:26.061Z,11.50
2023-04-14T05:08:52.960Z,11.40
2023-04-14T05:11:19.838Z,11.40
2023-04-14T05:13:46.808Z,11.40
2023-04-14T05:16:15.239Z,11.40
2023-04-14T05:18:42.282Z,11.40
2023-04-14T05:21:09.649Z,11.40
2023-04-14T05:23:37.110Z,11.40
2023-04-14T05:26:27.040Z,11.40
2023-04-14T05:28:51.311Z,11.40
2023-04-14T05:31:19.606Z,11.40
2023-04-14T05:33:46.504Z,11.40
2023-04-14T05:36:13.352Z,11.40
2023-04-14T05:38:40.217Z,11.40
2023-04-14T05:41:07.070Z,11.40
2023-04-14T05:43:33.922Z,11.40
2023-04-14T05:46:00.838Z,11.40
2023-04-14T05:48:29.095Z,11.40
2023-04-14T05:50:56.260Z,11.30
2023-04-14T05:53:23.678Z,11.40
2023-04-14T05:55:51.705Z,11.30
2023-04-14T05:58:18.594Z,11.30
2023-04-14T06:00:45.462Z,11.30
2023-04-14T06:03:12.489Z,11.40
2023-04-14T06:05:40.869Z,11.30
2023-04-14T06:08:07.765Z,11.30
2023-04-14T06:10:34.639Z,11.30
2023-04-14T06:13:01.550Z,11.30
2023-04-14T06:15:28.494Z,11.40
2023-04-14T06:17:55.442Z,11.30
2023-04-14T06:20:22.309Z,11.30
2023-04-14T06:22:50.527Z,11.30
2023-04-14T06:25:17.501Z,11.30
2023-04-14T06:27:44.384Z,11.30
2023-04-14T06:30:11.681Z,11.30
2023-04-14T06:32:38.610Z,11.30
2023-04-14T06:35:06.215Z,11.30
2023-04-14T06:37:33.108Z,11.30
2023-04-14T06:40:01.376Z,11.30
2023-04-14T06:42:28.225Z,11.30
2023-04-14T06:44:55.098Z,11.40
2023-04-14T06:47:22.016Z,11.30
2023-04-14T06:49:49.492Z,11.40
2023-04-14T06:52:16.356Z,11.40
2023-04-14T06:54:43.239Z,11.40
2023-04-14T06:57:11.479Z,11.40
2023-04-14T06:59:39.291Z,11.40
2023-04-14T07:02:06.190Z,11.40
2023-04-14T07:04:33.105Z,11.40
2023-04-14T07:07:00.235Z,11.40
2023-04-14T07:09:27.226Z,11.40
2023-04-14T07:11:54.187Z,11.40
2023-04-14T07:14:22.651Z,11.40
2023-04-14T07:16:50.141Z,11.40
2023-04-14T07:19:17.048Z,11.40
2023-04-14T07:21:44.811Z,11.40
2023-04-14T07:24:13.605Z,11.40
2023-04-14T07:26:41.711Z,11.40
2023-04-14T07:29:08.575Z,11.40
2023-04-14T07:31:36.943Z,11.50
2023-04-14T07:34:03.974Z,11.50
2023-04-14T07:36:31.091Z,11.50
2023-04-14T07:38:57.969Z,11.50
2023-04-14T07:41:25.061Z,11.50
2023-04-14T07:43:51.919Z,11.50
2023-04-14T07:46:18.842Z,11.50
2023-04-14T07:48:47.128Z,11.50
2023-04-14T07:51:14.017Z,11.50
2023-04-14T07:53:40.920Z,11.50
2023-04-14T07:56:07.826Z,11.50
2023-04-14T07:58:34.938Z,11.50
2023-04-14T08:01:01.885Z,11.50
2023-04-14T08:03:28.893Z,11.60
2023-04-14T08:05:57.371Z,11.60
2023-04-14T08:08:24.278Z,11.60
2023-04-14T08:10:51.200Z,11.60
2023-04-14T08:13:18.041Z,11.60
2023-04-14T08:15:44.976Z,11.70
2023-04-14T08:18:11.941Z,11.70
2023-04-14T08:20:38.895Z,11.70
2023-04-14T08:23:07.239Z,11.70
2023-04-14T08:25:34.136Z,11.70
2023-04-14T08:28:01.046Z,11.80
2023-04-14T08:30:27.935Z,11.80
2023-04-14T08:32:56.886Z,11.80
2023-04-14T08:35:39.286Z,11.80
2023-04-14T08:38:10.166Z,11.80
2023-04-14T08:40:37.593Z,11.90
2023-04-14T08:43:04.762Z,11.90
2023-04-14T08:45:31.682Z,11.90
2023-04-14T08:47:59.245Z,12.00
2023-04-14T08:50:26.755Z,12.00
2023-04-14T08:52:54.436Z,12.00
2023-04-14T08:55:22.880Z,12.10
2023-04-14T08:57:49.783Z,12.10
2023-04-14T09:00:17.256Z,12.10
2023-04-14T09:02:44.488Z,12.10
2023-04-14T09:05:11.633Z,12.20
2023-04-14T09:07:38.561Z,12.20
2023-04-14T09:10:07.033Z,12.20
2023-04-14T09:12:35.317Z,12.30
2023-04-14T09:15:02.251Z,12.30
2023-04-14T09:17:29.384Z,12.30
2023-04-14T09:20:38.077Z,12.40
2023-04-14T09:22:43.127Z,12.40
2023-04-14T09:25:10.223Z,12.40
2023-04-14T09:27:38.481Z,12.40
2023-04-14T09:30:06.436Z,12.50
2023-04-14T09:32:33.316Z,12.50
2023-04-14T09:35:00.193Z,12.50
2023-04-14T09:37:27.082Z,12.50
2023-04-14T09:39:53.954Z,12.50
2023-04-14T09:42:20.807Z,12.50
2023-04-14T09:44:55.909Z,12.60
2023-04-14T09:47:22.916Z,12.50
2023-04-14T09:49:56.595Z,12.60
2023-04-14T09:52:23.526Z,12.60
2023-04-14T09:54:55.006Z,12.60
2023-04-14T09:57:25.056Z,12.60
2023-04-14T09:59:51.881Z,12.60
2023-04-14T10:02:20.445Z,12.70
2023-04-14T10:04:47.529Z,12.70
2023-04-14T10:07:14.406Z,12.70
2023-04-14T10:09:41.296Z,12.70
2023-04-14T10:12:09.859Z,12.70
2023-04-14T10:14:37.131Z,12.70
2023-04-14T10:17:04.001Z,12.70
2023-04-14T10:19:32.313Z,12.70
2023-04-14T10:21:59.384Z,12.80
2023-04-14T10:24:26.294Z,12.80
2023-04-14T10:26:53.315Z,12.80
2023-04-14T10:29:20.179Z,12.80
2023-04-14T10:31:48.223Z,12.80
2023-04-14T10:34:15.309Z,12.80
2023-04-14T10:36:43.819Z,12.80
2023-04-14T10:39:12.780Z,12.80
2023-04-14T10:41:46.283Z,12.90
2023-04-14T10:44:23.229Z,12.90
2023-04-14T10:46:50.134Z,12.90
2023-04-14T10:49:17.022Z,12.80
2023-04-14T10:51:47.939Z,12.80
2023-04-14T10:54:16.766Z,12.90
2023-04-14T10:56:52.291Z,12.90
2023-04-14T10:59:20.747Z,12.90
2023-04-14T11:01:47.747Z,12.90
2023-04-14T11:04:17.591Z,12.90
2023-04-14T11:06:52.473Z,12.90
2023-04-14T11:09:24.187Z,12.90
2023-04-14T11:11:51.050Z,13.00
2023-04-14T11:14:18.006Z,12.90
2023-04-14T11:16:58.854Z,12.90
2023-04-14T11:19:30.297Z,12.90
2023-04-14T11:21:58.626Z,12.90
2023-04-14T11:24:25.697Z,12.90
2023-04-14T11:26:53.046Z,12.90
2023-04-14T11:29:19.954Z,13.00
2023-04-14T11:31:46.925Z,13.00
2023-04-14T11:34:13.785Z,12.90
2023-04-14T11:36:40.765Z,13.00
2023-04-14T11:39:09.048Z,13.00
2023-04-14T11:41:35.987Z,13.00
2023-04-14T11:44:02.863Z,13.00
2023-04-14T11:46:30.032Z,13.00
2023-04-14T11:48:57.010Z,13.00
2023-04-14T11:51:33.174Z,13.00
2023-04-14T11:54:00.189Z,13.10
2023-04-14T11:56:28.578Z,13.00
2023-04-14T11:59:01.994Z,13.10
2023-04-14T12:01:29.166Z,13.10
2023-04-14T12:03:56.242Z,13.10
2023-04-14T12:06:23.332Z,13.10
2023-04-14T12:08:53.281Z,13.10
2023-04-14T12:11:20.145Z,13.10
2023-04-14T12:13:50.140Z,13.10
2023-04-14T12:16:17.246Z,13.10
2023-04-14T12:18:44.370Z,13.10
2023-04-14T12:21:12.218Z,13.10
2023-04-14T12:23:39.402Z,13.20
2023-04-14T12:26:09.783Z,13.20
2023-04-14T12:28:36.672Z,13.20
2023-04-14T12:31:05.168Z,13.20
2023-04-14T12:33:32.148Z,13.20
2023-04-14T12:36:00.836Z,13.20
2023-04-14T12:38:27.737Z,13.30
2023-04-14T12:40:54.739Z,13.30
2023-04-14T12:43:27.663Z,13.30
2023-04-14T12:45:54.525Z,13.30
2023-04-14T12:48:22.763Z,13.30
2023-04-14T12:50:51.225Z,13.30
2023-04-14T12:53:25.128Z,13.30
2023-04-14T12:56:04.299Z,13.40
2023-04-14T12:58:31.221Z,13.40
2023-04-14T13:00:58.124Z,13.30
2023-04-14T13:03:37.508Z,13.30
2023-04-14T13:06:06.103Z,13.30
2023-04-14T13:08:33.028Z,13.30
2023-04-14T13:11:00.209Z,13.40
2023-04-14T13:13:27.114Z,13.40
2023-04-14T13:16:13.363Z,13.40
2023-04-14T13:18:42.237Z,13.40
2023-04-14T13:21:09.238Z,13.40
2023-04-14T13:23:36.079Z,13.50
2023-04-14T13:26:02.969Z,13.50
2023-04-14T13:28:29.877Z,13.50
2023-04-14T13:30:57.508Z,13.60
2023-04-14T13:33:24.837Z,13.60
2023-04-14T13:35:53.127Z,13.60
2023-04-14T13:38:20.028Z,13.60
2023-04-14T13:40:48.186Z,13.70
2023-04-14T13:43:16.335Z,13.60
2023-04-14T13:45:43.230Z,13.70
2023-04-14T13:48:10.149Z,13.70
2023-04-14T13:50:37.075Z,13.70
2023-04-14T13:53:05.329Z,13.70
2023-04-14T13:55:32.198Z,13.80
2023-04-14T13:57:59.110Z,13.70
2023-04-14T14:00:26.158Z,13.80
2023-04-14T14:02:53.206Z,13.80
2023-04-14T14:05:20.183Z,13.80
2023-04-14T14:07:47.089Z,13.80
2023-04-14T14:10:15.367Z,13.80
2023-04-14T14:12:42.272Z,13.90
2023-04-14T14:15:10.104Z,13.90
2023-04-14T14:17:37.010Z,13.90
2023-04-14T14:20:04.319Z,14.00
2023-04-14T14:22:31.204Z,14.00
2023-04-14T14:25:10.709Z,14.00
2023-04-14T14:27:43.883Z,14.00
2023-04-14T14:30:11.638Z,14.00
2023-04-14T14:32:38.568Z,14.10
2023-04-14T14:35:06.195Z,14.10
2023-04-14T14:37:33.127Z,14.10
2023-04-14T14:40:00.003Z,14.10
2023-04-14T14:42:26.884Z,14.10
2023-04-14T14:44:55.158Z,14.10
2023-04-14T14:47:22.068Z,14.10
2023-04-14T14:49:58.957Z,14.20
2023-04-14T14:52:33.460Z,14.20
2023-04-14T14:55:00.346Z,14.20
2023-04-14T14:57:27.265Z,14.20
2023-04-14T14:59:55.704Z,14.20
2023-04-14T15:02:22.866Z,14.30
2023-04-14T15:04:50.064Z,14.30
2023-04-14T15:07:17.114Z,14.40
2023-04-14T15:09:46.626Z,14.40
2023-04-14T15:12:13.524Z,14.50
2023-04-14T15:14:40.392Z,14.50
2023-04-14T15:17:08.682Z,14.50
2023-04-14T15:19:35.545Z,14.50
2023-04-14T15:22:02.402Z,14.50
2023-04-14T15:24:29.291Z,14.60
2023-04-14T15:26:56.250Z,14.60
2023-04-14T15:29:23.182Z,14.60
2023-04-14T15:31:50.108Z,14.60
2023-04-14T15:34:18.382Z,14.70
2023-04-14T15:36:45.317Z,14.70
2023-04-14T15:39:12.175Z,14.80
2023-04-14T15:41:39.048Z,14.80
2023-04-14T15:44:05.936Z,14.80
2023-04-14T15:46:32.861Z,14.90
2023-04-14T15:48:59.732Z,14.90
2023-04-14T15:51:28.032Z,14.90
2023-04-14T15:53:54.904Z,15.00
2023-04-14T15:56:21.808Z,15.00
2023-04-14T15:58:48.707Z,15.00
2023-04-14T16:01:15.626Z,15.00
2023-04-14T16:03:42.705Z,15.10
2023-04-14T16:06:09.616Z,15.10
2023-04-14T16:08:37.875Z,15.10
2023-04-14T16:11:04.809Z,15.10
2023-04-14T16:13:31.713Z,15.10
2023-04-14T16:15:58.661Z,15.10
2023-04-14T16:18:25.606Z,15.10
2023-04-14T16:20:52.471Z,15.10
2023-04-14T16:23:19.340Z,15.20
2023-04-14T16:25:49.548Z,15.10
2023-04-14T16:28:16.471Z,15.20
2023-04-14T16:30:43.447Z,15.20
2023-04-14T16:33:10.353Z,15.20
2023-04-14T16:35:37.300Z,15.20
2023-04-14T16:38:04.183Z,15.20
2023-04-14T16:40:31.071Z,15.30
2023-04-14T16:42:59.431Z,15.30
2023-04-14T16:45:26.288Z,15.30
2023-04-14T16:47:53.233Z,15.30
2023-04-14T16:50:20.185Z,15.30
2023-04-14T16:52:47.146Z,15.30
2023-04-14T16:55:14.130Z,15.30
2023-04-14T16:57:40.986Z,15.30
2023-04-14T17:00:10.630Z,15.30
2023-04-14T17:02:38.710Z,15.40
2023-04-14T17:05:07.125Z,15.30
2023-04-14T17:07:34.015Z,15.40
2023-04-14T17:10:00.890Z,15.30
2023-04-14T17:12:27.754Z,15.30
2023-04-14T17:14:54.603Z,15.30
2023-04-14T17:17:22.962Z,15.30
2023-04-14T17:19:49.858Z,15.30
2023-04-14T17:22:16.706Z,15.30
2023-04-14T17:24:43.586Z,15.20
2023-04-14T17:27:10.503Z,15.20
2023-04-14T17:29:37.412Z,15.20
2023-04-14T17:32:04.748Z,15.20
2023-04-14T17:34:33.164Z,15.10
2023-04-14T17:37:00.051Z,15.20
2023-04-14T17:39:27.015Z,15.10
2023-04-14T17:41:54.402Z,15.10
2023-04-14T17:44:21.377Z,15.10
2023-04-14T17:46:48.247Z,15.10
2023-04-14T17:49:15.122Z,15.10
2023-04-14T17:51:43.359Z,15.10
2023-04-14T17:54:10.210Z,15.00
2023-04-14T17:56:37.076Z,15.00
2023-04-14T17:59:03.937Z,15.00
2023-04-14T18:01:30.802Z,14.90
2023-04-14T18:03:57.808Z,14.90
2023-04-14T18:06:24.785Z,14.90
2023-04-14T18:08:53.020Z,14.80
2023-04-14T18:11:19.882Z,14.80
2023-04-14T18:13:46.732Z,14.80
2023-04-14T18:16:13.586Z,14.80
2023-04-14T18:18:40.478Z,14.80
2023-04-14T18:21:07.329Z,14.70
2023-04-14T18:23:34.337Z,14.70
2023-04-14T18:28:32.427Z,14.70
2023-04-14T18:30:59.438Z,14.70
2023-04-14T18:33:26.542Z,14.70
2023-04-14T18:35:53.682Z,14.70
2023-04-14T18:38:20.598Z,14.70
2023-04-14T18:40:47.459Z,14.70
2023-04-14T18:43:15.751Z,14.70
2023-04-14T18:45:44.857Z,14.60
2023-04-14T18:48:11.739Z,14.60
2023-04-14T18:50:38.595Z,14.60
2023-04-14T18:53:05.480Z,14.50
2023-04-14T18:55:44.358Z,14.50
2023-04-14T18:58:12.386Z,14.50
2023-04-14T19:00:40.700Z,14.50
2023-04-14T19:03:07.753Z,14.50
2023-04-14T19:05:34.698Z,14.50
2023-04-14T19:08:01.614Z,14.50
2023-04-14T19:10:28.651Z,14.40
2023-04-14T19:12:55.510Z,14.40
2023-04-14T19:15:22.335Z,14.40
2023-04-14T19:17:50.548Z,14.40
2023-04-14T19:20:17.431Z,14.30
2023-04-14T19:22:44.296Z,14.30
2023-04-14T19:25:11.169Z,14.30
2023-04-14T19:27:38.028Z,14.20
2023-04-14T19:30:06.026Z,14.20
2023-04-14T19:32:33.632Z,14.20
2023-04-14T19:35:01.991Z,14.20
2023-04-14T19:37:28.894Z,14.20
2023-04-14T19:39:55.735Z,14.10
2023-04-14T19:42:22.609Z,14.10
2023-04-14T19:44:49.484Z,14.10
2023-04-14T19:47:16.408Z,14.10
2023-04-14T19:49:43.279Z,14.10
2023-04-14T19:52:11.504Z,14.10
2023-04-14T19:54:38.343Z,14.10
2023-04-14T19:57:05.199Z,14.00
2023-04-14T19:59:32.044Z,14.10
2023-04-14T20:01:58.931Z,14.10
2023-04-14T20:04:26.022Z,14.00
2023-04-14T20:06:53.078Z,14.00
2023-04-14T20:09:21.357Z,14.00
2023-04-14T20:11:48.243Z,14.00
2023-04-14T20:14:15.110Z,13.90
2023-04-14T20:16:41.980Z,13.90
2023-04-14T20:19:08.887Z,13.90
2023-04-14T20:21:35.764Z,13.90
2023-04-14T20:24:02.650Z,13.90
2023-04-14T20:26:30.889Z,13.80
2023-04-14T20:28:57.729Z,13.90
2023-04-14T20:31:24.801Z,13.80
2023-04-14T20:33:51.814Z,13.80
2023-04-14T20:36:18.870Z,13.80
2023-04-14T20:38:45.704Z,13.80
2023-04-14T20:41:12.565Z,13.80
2023-04-14T20:43:40.800Z,13.80
2023-04-14T20:46:07.724Z,13.70
2023-04-14T20:48:34.626Z,13.70
2023-04-14T20:51:01.547Z,13.70
2023-04-14T20:53:28.473Z,13.70
2023-04-14T20:55:55.366Z,13.70
2023-04-14T20:58:22.246Z,13.60
2023-04-14T21:00:50.485Z,13.60
2023-04-14T21:03:17.457Z,13.60
2023-04-14T21:05:44.509Z,13.60
2023-04-14T21:08:11.362Z,13.70
2023-04-14T21:11:15.596Z,13.60
2023-04-14T21:15:25.358Z,13.60
2023-04-14T21:16:13.353Z,13.60
2023-04-14T21:18:40.242Z,13.60
2023-04-14T21:21:07.115Z,13.60
2023-04-14T21:23:34.007Z,13.60
2023-04-14T21:26:00.883Z,13.60
2023-04-14T21:28:27.744Z,13.60
2023-04-14T21:30:54.588Z,13.50
2023-04-14T21:33:22.802Z,13.50
2023-04-14T21:35:49.676Z,13.50
2023-04-14T21:38:16.541Z,13.50
2023-04-14T21:40:43.405Z,13.40
2023-04-14T21:43:10.269Z,13.40
2023-04-14T21:45:37.150Z,13.40
2023-04-14T21:48:04.293Z,13.40
2023-04-14T21:50:33.314Z,13.40
2023-04-14T21:53:00.292Z,13.40
2023-04-14T21:55:27.162Z,13.40
2023-04-14T21:57:54.530Z,13.40
2023-04-14T22:00:21.545Z,13.40
2023-04-14T22:02:48.535Z,13.40
2023-04-14T22:05:15.671Z,13.30
2023-04-14T22:07:43.894Z,13.30
2023-04-14T22:10:11.029Z,13.30
2023-04-14T22:12:37.981Z,13.30
2023-04-14T22:15:05.609Z,13.30
2023-04-14T22:17:32.512Z,13.20
2023-04-14T22:19:59.373Z,13.20
2023-04-14T22:22:26.287Z,13.20
2023-04-14T22:24:54.867Z,13.20
2023-04-14T22:27:21.730Z,13.20
2023-04-14T22:29:48.581Z,13.20
2023-04-14T22:32:15.614Z,13.20
2023-04-14T22:34:42.529Z,13.20
2023-04-14T22:37:09.412Z,13.20
2023-04-14T22:39:36.301Z,13.20
2023-04-14T22:42:04.537Z,13.20
2023-04-14T22:44:31.422Z,13.10
2023-04-14T22:46:58.278Z,13.10
2023-04-14T22:49:25.119Z,13.10
2023-04-14T22:51:51.978Z,13.10
2023-04-14T22:54:18.832Z,13.00
2023-04-14T22:56:45.670Z,13.00
2023-04-14T22:59:13.906Z,13.10
2023-04-14T23:01:40.798Z,13.00
2023-04-14T23:04:07.724Z,13.00
2023-04-14T23:06:34.670Z,13.00
2023-04-14T23:09:01.793Z,13.00
2023-04-14T23:11:28.844Z,13.00
2023-04-14T23:13:55.747Z,13.00
2023-04-14T23:16:24.136Z,13.00
2023-04-14T23:18:51.072Z,13.00
2023-04-14T23:21:18.712Z,12.90
2023-04-14T23:23:45.588Z,13.00
2023-04-14T23:26:12.457Z,13.00
2023-04-14T23:28:39.327Z,13.00
2023-04-14T23:31:06.179Z,13.00
2023-04-14T23:33:34.424Z,13.00
2023-04-14T23:36:01.296Z,13.00
2023-04-14T23:38:28.154Z,12.90
2023-04-14T23:40:55.022Z,12.90
2023-04-14T23:43:21.867Z,12.90
2023-04-14T23:45:48.713Z,12.90
2023-04-14T23:48:15.545Z,12.90
2023-04-14T23:51:01.511Z,12.90
2023-04-14T23:53:30.631Z,12.80
2023-04-14T23:55:57.479Z,12.80
2023-04-14T23:58:26.846Z,12.80
